createdAt,value
2022-11-14T00:01:25.647Z,95.00
2022-11-14T00:03:54.531Z,95.00
2022-11-14T00:06:22.147Z,95.20
2022-11-14T00:08:49.675Z,95.10
2022-11-14T00:11:17.280Z,94.90
2022-11-14T00:13:45.140Z,94.90
2022-11-14T00:16:12.792Z,94.70
2022-11-14T00:18:40.445Z,94.80
2022-11-14T00:21:09.414Z,94.80
2022-11-14T00:23:37.079Z,94.70
2022-11-14T00:26:04.620Z,94.80
2022-11-14T00:28:32.488Z,95.20
2022-11-14T00:31:00.200Z,94.90
2022-11-14T00:33:27.770Z,95.20
2022-11-14T00:35:55.906Z,95.00
2022-11-14T00:38:24.926Z,95.10
2022-11-14T00:40:52.568Z,95.00
2022-11-14T00:43:20.126Z,95.10
2022-11-14T00:45:48.001Z,94.80
2022-11-14T00:48:15.980Z,95.10
2022-11-14T00:50:43.565Z,94.70
2022-11-14T00:53:11.258Z,94.50
2022-11-14T00:55:40.275Z,94.80
2022-11-14T00:58:07.952Z,94.80
2022-11-14T01:00:35.667Z,94.80
2022-11-14T01:03:03.239Z,94.80
2022-11-14T01:05:30.844Z,94.80
2022-11-14T01:07:58.481Z,95.00
2022-11-14T01:10:26.067Z,95.00
2022-11-14T01:12:55.039Z,94.70
2022-11-14T01:15:22.593Z,94.70
2022-11-14T01:17:50.165Z,94.60
2022-11-14T01:20:18.031Z,94.60
2022-11-14T01:22:45.738Z,94.80
2022-11-14T01:25:13.270Z,94.70
2022-11-14T01:27:40.818Z,94.80
2022-11-14T01:30:10.246Z,94.70
2022-11-14T01:32:37.796Z,94.90
2022-11-14T01:35:05.574Z,95.00
2022-11-14T01:37:33.162Z,94.90
2022-11-14T01:40:00.740Z,95.30
2022-11-14T01:42:28.284Z,95.10
2022-11-14T01:44:55.953Z,95.10
2022-11-14T01:47:26.747Z,95.10
2022-11-14T01:49:55.744Z,95.20
2022-11-14T01:52:24.727Z,95.30
2022-11-14T01:54:53.788Z,95.40
2022-11-14T01:57:23.506Z,95.20
2022-11-14T01:59:52.696Z,95.20
2022-11-14T02:02:21.174Z,95.10
2022-11-14T02:04:52.522Z,95.30
2022-11-14T02:07:20.604Z,95.10
2022-11-14T02:09:49.728Z,95.10
2022-11-14T02:12:18.356Z,95.30
2022-11-14T02:18:00.581Z,95.30
2022-11-14T02:20:33.171Z,95.10
2022-11-14T02:23:01.055Z,95.10
2022-11-14T02:25:28.974Z,94.60
2022-11-14T02:27:57.938Z,94.30
2022-11-14T02:30:25.722Z,94.90
2022-11-14T02:35:42.703Z,94.20
2022-11-14T02:38:10.817Z,94.90
2022-11-14T02:40:38.632Z,94.80
2022-11-14T02:43:06.723Z,94.30
2022-11-14T02:45:34.447Z,95.10
2022-11-14T02:48:02.142Z,94.70
2022-11-14T02:50:29.923Z,94.80
2022-11-14T02:52:59.117Z,94.40
2022-11-14T02:55:26.783Z,94.80
2022-11-14T02:57:54.489Z,94.70
2022-11-14T03:00:22.348Z,94.60
2022-11-14T03:02:50.017Z,94.70
2022-11-14T03:05:17.852Z,94.70
2022-11-14T03:07:45.543Z,94.40
2022-11-14T03:10:14.903Z,94.40
2022-11-14T03:12:42.743Z,95.10
2022-11-14T03:15:11.154Z,94.70
2022-11-14T03:17:38.920Z,95.00
2022-11-14T03:20:07.157Z,94.30
2022-11-14T03:22:34.868Z,95.10
2022-11-14T03:25:02.849Z,94.80
2022-11-14T03:27:32.101Z,94.80
2022-11-14T03:29:59.946Z,94.90
2022-11-14T03:32:27.915Z,94.60
2022-11-14T03:35:01.545Z,94.10
2022-11-14T03:37:29.390Z,95.10
2022-11-14T03:39:57.044Z,94.70
2022-11-14T03:42:26.441Z,94.80
2022-11-14T03:44:55.466Z,94.90
2022-11-14T03:47:23.230Z,95.10
2022-11-14T03:49:51.270Z,94.90
2022-11-14T03:52:19.226Z,94.10
2022-11-14T03:54:47.034Z,94.10
2022-11-14T03:57:14.870Z,94.50
2022-11-14T03:59:42.570Z,94.60
2022-11-14T04:02:14.427Z,94.50
2022-11-14T04:04:42.143Z,95.00
2022-11-14T04:07:09.915Z,94.50
2022-11-14T04:09:37.738Z,94.40
2022-11-14T04:12:12.802Z,94.60
2022-11-14T04:14:43.371Z,94.70
2022-11-14T04:17:11.393Z,94.30
2022-11-14T04:19:40.446Z,94.50
2022-11-14T04:22:08.406Z,94.80
2022-11-14T04:24:36.109Z,94.60
2022-11-14T04:27:04.049Z,94.40
2022-11-14T04:29:31.982Z,94.20
2022-11-14T04:31:59.763Z,94.50
2022-11-14T04:34:27.434Z,94.50
2022-11-14T04:36:56.693Z,94.40
2022-11-14T04:39:24.511Z,94.80
2022-11-14T04:41:52.208Z,94.60
2022-11-14T04:44:19.933Z,94.70
2022-11-14T04:46:47.704Z,94.60
2022-11-14T04:49:15.619Z,94.60
2022-11-14T04:51:43.724Z,94.30
2022-11-14T04:54:12.816Z,95.00
2022-11-14T04:56:44.766Z,94.90
2022-11-14T04:59:16.924Z,95.10
2022-11-14T05:01:47.552Z,94.50
2022-11-14T05:04:15.459Z,94.50
2022-11-14T05:06:43.241Z,94.60
2022-11-14T05:09:11.052Z,94.60
2022-11-14T05:11:40.166Z,94.50
2022-11-14T05:14:07.896Z,94.80
2022-11-14T05:16:35.590Z,94.70
2022-11-14T05:19:03.564Z,94.60
2022-11-14T05:21:38.919Z,94.50
2022-11-14T05:24:06.952Z,94.80
2022-11-14T05:26:34.642Z,95.20
2022-11-14T05:29:04.254Z,94.80
2022-11-14T05:31:32.085Z,95.40
2022-11-14T05:33:59.784Z,95.00
2022-11-14T05:36:27.821Z,94.80
2022-11-14T05:38:55.508Z,93.80
2022-11-14T05:41:23.405Z,94.90
2022-11-14T05:43:51.083Z,94.40
2022-11-14T05:46:20.304Z,94.60
2022-11-14T05:48:51.133Z,94.90
2022-11-14T05:51:18.894Z,95.00
2022-11-14T05:53:46.619Z,94.60
2022-11-14T05:56:14.353Z,94.80
2022-11-14T05:58:44.928Z,95.00
2022-11-14T06:01:13.650Z,95.60
2022-11-14T06:03:49.360Z,95.20
2022-11-14T06:06:17.873Z,95.80
2022-11-14T06:08:45.784Z,95.40
2022-11-14T06:11:14.808Z,95.60
2022-11-14T06:13:56.089Z,95.60
2022-11-14T06:16:24.001Z,95.00
2022-11-14T06:18:54.737Z,95.10
2022-11-14T06:21:24.841Z,95.20
2022-11-14T06:23:52.679Z,95.00
2022-11-14T06:26:21.851Z,95.10
2022-11-14T06:28:50.049Z,95.20
2022-11-14T06:31:17.897Z,95.90
2022-11-14T06:33:47.024Z,94.60
2022-11-14T06:36:16.427Z,95.70
2022-11-14T06:38:44.365Z,95.80
2022-11-14T06:41:15.919Z,94.70
2022-11-14T06:43:44.486Z,93.90
2022-11-14T06:46:13.180Z,94.70
2022-11-14T06:48:41.152Z,94.60
2022-11-14T06:51:08.879Z,95.00
2022-11-14T06:53:38.010Z,94.40
2022-11-14T06:56:06.602Z,94.60
2022-11-14T06:58:35.849Z,94.70
2022-11-14T07:01:05.453Z,94.60
2022-11-14T07:03:33.286Z,95.10
2022-11-14T07:06:01.346Z,94.80
2022-11-14T07:08:29.022Z,95.10
2022-11-14T07:11:03.786Z,95.20
2022-11-14T07:13:32.511Z,95.40
2022-11-14T07:16:00.267Z,95.10
2022-11-14T07:18:28.142Z,94.60
2022-11-14T07:20:59.313Z,94.90
2022-11-14T07:23:27.054Z,95.40
2022-11-14T07:25:54.671Z,94.60
2022-11-14T07:28:23.863Z,95.10
2022-11-14T07:30:51.521Z,95.10
2022-11-14T07:33:19.405Z,94.90
2022-11-14T07:35:47.012Z,94.80
2022-11-14T07:38:14.769Z,94.90
2022-11-14T07:40:42.623Z,94.90
2022-11-14T07:43:10.343Z,94.50
2022-11-14T07:45:39.401Z,94.70
2022-11-14T07:48:07.110Z,95.20
2022-11-14T07:50:35.033Z,94.70
2022-11-14T07:53:02.905Z,94.70
2022-11-14T07:55:30.649Z,94.80
2022-11-14T07:58:00.314Z,94.80
2022-11-14T08:00:28.245Z,95.10
2022-11-14T08:03:00.283Z,94.60
2022-11-14T08:05:27.964Z,95.10
2022-11-14T08:07:55.967Z,94.80
2022-11-14T08:10:23.673Z,94.70
2022-11-14T08:13:29.770Z,94.60
2022-11-14T08:15:48.783Z,95.10
2022-11-14T08:18:21.355Z,94.40
2022-11-14T08:20:49.107Z,95.00
2022-11-14T08:23:26.545Z,94.30
2022-11-14T08:25:54.196Z,94.50
2022-11-14T08:28:21.909Z,94.20
2022-11-14T08:30:49.694Z,94.40
2022-11-14T08:33:17.463Z,94.40
2022-11-14T08:35:46.581Z,93.80
2022-11-14T08:38:20.042Z,94.80
2022-11-14T08:40:47.876Z,94.40
2022-11-14T08:43:15.586Z,94.60
2022-11-14T08:45:46.285Z,94.60
2022-11-14T08:48:14.057Z,94.30
2022-11-14T08:50:41.690Z,94.40
2022-11-14T08:53:10.752Z,94.70
2022-11-14T08:55:38.419Z,95.10
2022-11-14T08:58:06.145Z,94.50
2022-11-14T09:00:33.896Z,94.60
2022-11-14T09:03:29.518Z,94.40
2022-11-14T09:09:28.837Z,95.10
2022-11-14T09:11:56.384Z,95.10
2022-11-14T09:14:23.980Z,95.00
2022-11-14T09:16:51.553Z,94.80
2022-11-14T09:19:19.274Z,94.50
2022-11-14T09:21:46.806Z,94.70
2022-11-14T09:24:14.515Z,94.70
2022-11-14T09:26:43.490Z,94.90
2022-11-14T09:29:11.070Z,94.80
2022-11-14T09:31:38.685Z,95.10
2022-11-14T09:34:06.251Z,94.70
2022-11-14T09:36:33.939Z,94.80
2022-11-14T09:39:01.517Z,94.60
2022-11-14T09:41:37.794Z,94.60
2022-11-14T09:44:29.955Z,94.80
2022-11-14T09:46:59.070Z,94.90
2022-11-14T09:49:28.066Z,94.80
2022-11-14T09:51:58.012Z,95.20
2022-11-14T09:54:26.946Z,94.80
2022-11-14T09:56:54.853Z,94.30
2022-11-14T09:59:23.890Z,94.50
2022-11-14T10:01:56.837Z,94.50
2022-11-14T10:04:29.482Z,94.40
2022-11-14T10:07:02.710Z,94.20
2022-11-14T10:09:48.912Z,94.40
2022-11-14T10:12:22.346Z,94.40
2022-11-14T10:15:06.363Z,94.20
2022-11-14T10:17:43.584Z,94.10
2022-11-14T10:20:18.887Z,94.10
2022-11-14T10:23:01.027Z,94.20
2022-11-14T10:25:32.082Z,94.10
2022-11-14T10:28:05.511Z,94.10
2022-11-14T10:30:39.516Z,93.90
2022-11-14T10:33:15.024Z,93.90
2022-11-14T10:35:44.223Z,93.80
2022-11-14T10:38:14.316Z,93.70
2022-11-14T10:40:43.631Z,94.00
2022-11-14T10:43:23.708Z,93.70
2022-11-14T10:45:54.472Z,93.50
2022-11-14T10:48:29.824Z,93.50
2022-11-14T10:50:59.007Z,93.40
2022-11-14T10:53:30.228Z,93.20
2022-11-14T10:56:04.270Z,93.10
2022-11-14T10:58:46.812Z,93.00
2022-11-14T11:01:35.121Z,93.50
2022-11-14T11:04:14.474Z,93.20
2022-11-14T11:06:42.209Z,93.10
2022-11-14T11:09:27.664Z,93.20
2022-11-14T11:11:57.335Z,92.80
2022-11-14T11:14:25.001Z,92.60
2022-11-14T11:17:07.628Z,92.40
2022-11-14T11:19:36.531Z,92.40
2022-11-14T11:22:04.402Z,92.00
2022-11-14T11:24:32.894Z,92.20
2022-11-14T11:27:22.595Z,92.60
2022-11-14T11:30:02.432Z,92.40
2022-11-14T11:32:30.255Z,92.40
2022-11-14T11:35:00.407Z,92.60
2022-11-14T11:40:03.372Z,92.50
2022-11-14T11:43:23.880Z,92.50
2022-11-14T11:45:22.066Z,92.30
2022-11-14T11:47:53.973Z,92.40
2022-11-14T11:50:24.524Z,92.30
2022-11-14T11:52:57.426Z,92.60
2022-11-14T11:55:26.144Z,92.50
2022-11-14T11:57:57.615Z,92.60
2022-11-14T12:00:25.386Z,92.70
2022-11-14T12:02:53.765Z,92.70
2022-11-14T12:05:26.641Z,92.70
2022-11-14T12:07:58.233Z,92.60
2022-11-14T12:10:27.511Z,92.50
2022-11-14T12:13:02.572Z,92.50
2022-11-14T12:15:33.094Z,92.60
2022-11-14T12:18:19.376Z,92.70
2022-11-14T12:20:51.395Z,92.30
2022-11-14T12:23:36.944Z,92.60
2022-11-14T12:26:11.788Z,92.40
2022-11-14T12:29:00.467Z,92.30
2022-11-14T12:31:28.724Z,92.00
2022-11-14T12:33:58.568Z,92.00
2022-11-14T12:36:30.865Z,92.20
2022-11-14T12:38:59.369Z,92.20
2022-11-14T12:41:28.090Z,92.10
2022-11-14T12:44:17.757Z,92.10
2022-11-14T12:47:15.405Z,91.90
2022-11-14T12:50:02.213Z,92.10
2022-11-14T12:52:48.579Z,92.20
2022-11-14T12:55:37.152Z,92.20
2022-11-14T12:58:07.721Z,92.00
2022-11-14T13:00:36.392Z,92.20
2022-11-14T13:03:17.881Z,92.30
2022-11-14T13:06:00.226Z,92.20
2022-11-14T13:09:01.229Z,92.00
2022-11-14T13:12:03.661Z,92.10
2022-11-14T13:14:49.004Z,92.40
2022-11-14T13:17:44.193Z,92.30
2022-11-14T13:20:44.204Z,92.50
2022-11-14T13:23:30.763Z,92.40
2022-11-14T13:26:13.640Z,92.60
2022-11-14T13:28:47.912Z,92.60
2022-11-14T13:31:20.301Z,92.70
2022-11-14T13:33:49.777Z,92.70
2022-11-14T13:36:23.514Z,92.70
2022-11-14T13:39:10.035Z,92.70
2022-11-14T13:41:57.443Z,92.70
2022-11-14T13:44:43.105Z,92.70
2022-11-14T13:47:20.536Z,92.70
2022-11-14T13:49:54.983Z,92.70
2022-11-14T13:52:22.663Z,92.80
2022-11-14T13:54:50.657Z,92.90
2022-11-14T13:57:23.597Z,93.00
2022-11-14T13:59:57.243Z,93.10
2022-11-14T14:02:37.436Z,93.10
2022-11-14T14:05:12.051Z,92.90
2022-11-14T14:07:45.147Z,93.10
2022-11-14T14:10:21.344Z,93.20
2022-11-14T14:12:55.158Z,93.40
2022-11-14T14:15:27.628Z,93.10
2022-11-14T14:18:01.829Z,93.10
2022-11-14T14:20:35.295Z,93.10
2022-11-14T14:23:09.251Z,93.10
2022-11-14T14:25:42.257Z,93.10
2022-11-14T14:28:12.427Z,93.20
2022-11-14T14:30:41.565Z,93.30
2022-11-14T14:33:13.543Z,93.20
2022-11-14T14:35:49.702Z,93.30
2022-11-14T14:38:23.578Z,93.30
2022-11-14T14:40:51.352Z,93.30
2022-11-14T14:43:24.638Z,93.70
2022-11-14T14:45:54.223Z,93.70
2022-11-14T14:48:24.232Z,93.70
2022-11-14T14:50:52.552Z,93.70
2022-11-14T14:53:21.308Z,93.80
2022-11-14T14:55:52.999Z,93.70
2022-11-14T14:58:26.007Z,93.80
2022-11-14T15:00:56.381Z,93.90
2022-11-14T15:03:24.115Z,93.90
2022-11-14T15:05:58.329Z,93.90
2022-11-14T15:08:26.536Z,94.10
2022-11-14T15:10:55.287Z,94.40
2022-11-14T15:13:23.838Z,94.40
2022-11-14T15:15:51.639Z,94.40
2022-11-14T15:18:24.813Z,94.60
2022-11-14T15:21:08.919Z,94.70
2022-11-14T15:23:37.478Z,94.60
2022-11-14T15:26:06.881Z,94.90
2022-11-14T15:28:34.746Z,94.90
2022-11-14T15:31:03.383Z,95.00
2022-11-14T15:33:33.071Z,94.90
2022-11-14T15:36:07.886Z,95.20
2022-11-14T15:38:44.572Z,95.20
2022-11-14T15:41:20.061Z,95.20
2022-11-14T15:43:50.272Z,95.60
2022-11-14T15:46:28.411Z,95.60
2022-11-14T15:48:57.362Z,95.80
2022-11-14T15:51:44.778Z,95.80
2022-11-14T15:54:26.179Z,95.80
2022-11-14T15:56:54.353Z,96.00
2022-11-14T15:59:22.233Z,96.10
2022-11-14T16:01:51.281Z,96.10
2022-11-14T16:04:21.070Z,96.40
2022-11-14T16:06:48.805Z,96.30
2022-11-14T16:09:17.396Z,96.30
2022-11-14T16:11:45.291Z,96.40
2022-11-14T16:14:13.023Z,96.40
2022-11-14T16:16:40.784Z,96.70
2022-11-14T16:19:08.443Z,96.80
2022-11-14T16:21:38.124Z,96.80
2022-11-14T16:24:06.016Z,96.90
2022-11-14T16:26:33.704Z,96.90
2022-11-14T16:29:01.397Z,96.80
2022-11-14T16:31:28.951Z,96.70
2022-11-14T16:33:57.959Z,96.70
2022-11-14T16:36:25.792Z,96.90
2022-11-14T16:38:59.231Z,97.00
2022-11-14T16:41:26.791Z,97.10
2022-11-14T16:43:55.080Z,97.20
2022-11-14T16:46:23.034Z,97.10
2022-11-14T16:48:50.613Z,97.00
2022-11-14T16:51:46.066Z,97.20
2022-11-14T16:54:07.167Z,97.40
2022-11-14T16:56:34.785Z,97.40
2022-11-14T16:59:02.387Z,97.50
2022-11-14T17:01:29.999Z,97.60
2022-11-14T17:03:59.877Z,97.80
2022-11-14T17:06:27.502Z,97.90
2022-11-14T17:08:55.686Z,97.80
2022-11-14T17:11:24.875Z,98.00
2022-11-14T17:13:52.409Z,97.90
2022-11-14T17:16:19.987Z,98.00
2022-11-14T17:18:51.066Z,98.20
2022-11-14T17:21:18.802Z,98.10
2022-11-14T17:23:46.357Z,98.40
2022-11-14T17:26:14.813Z,98.20
2022-11-14T17:28:46.177Z,98.50
2022-11-14T17:31:14.066Z,98.40
2022-11-14T17:33:41.688Z,98.40
2022-11-14T17:36:10.564Z,98.50
2022-11-14T17:38:38.781Z,98.30
2022-11-14T17:41:06.632Z,98.80
2022-11-14T17:43:38.683Z,98.80
2022-11-14T17:46:14.279Z,98.80
2022-11-14T17:48:43.194Z,98.50
2022-11-14T17:51:11.820Z,98.80
2022-11-14T17:53:39.438Z,98.80
2022-11-14T17:56:07.649Z,98.90
2022-11-14T17:58:35.319Z,98.90
2022-11-14T18:01:02.987Z,99.10
2022-11-14T18:03:31.848Z,99.40
2022-11-14T18:06:05.530Z,99.30
2022-11-14T18:08:33.332Z,98.90
2022-11-14T18:11:01.414Z,98.80
2022-11-14T18:13:29.083Z,99.30
2022-11-14T18:16:00.817Z,99.30
2022-11-14T18:18:28.855Z,99.00
2022-11-14T18:20:58.057Z,98.90
2022-11-14T18:23:26.142Z,98.90
2022-11-14T18:25:53.700Z,99.20
2022-11-14T18:28:22.678Z,99.10
2022-11-14T18:30:56.566Z,99.00
2022-11-14T18:33:24.150Z,99.10
2022-11-14T18:35:59.502Z,99.20
2022-11-14T18:38:30.348Z,99.00
2022-11-14T18:40:58.432Z,99.20
2022-11-14T18:43:26.410Z,99.20
2022-11-14T18:45:54.035Z,99.30
2022-11-14T18:48:22.001Z,99.10
2022-11-14T18:50:49.581Z,99.10
2022-11-14T18:53:18.490Z,99.00
2022-11-14T18:55:47.487Z,99.30
2022-11-14T18:58:15.270Z,99.40
2022-11-14T19:00:42.921Z,99.30
2022-11-14T19:03:10.953Z,99.30
2022-11-14T19:05:38.793Z,99.40
2022-11-14T19:08:07.630Z,99.30
2022-11-14T19:10:36.670Z,99.10
2022-11-14T19:13:04.330Z,99.20
2022-11-14T19:15:32.192Z,99.30
2022-11-14T19:17:59.895Z,99.30
2022-11-14T19:20:27.501Z,99.00
2022-11-14T19:22:55.096Z,99.30
2022-11-14T19:25:22.689Z,99.30
2022-11-14T19:27:54.692Z,99.50
2022-11-14T19:30:22.385Z,99.50
2022-11-14T19:32:50.009Z,99.70
2022-11-14T19:35:20.673Z,99.50
2022-11-14T19:37:48.495Z,99.60
2022-11-14T19:40:16.185Z,99.80
2022-11-14T19:42:43.909Z,99.90
2022-11-14T19:45:13.170Z,99.90
2022-11-14T19:47:40.895Z,99.80
2022-11-14T19:50:09.823Z,99.80
2022-11-14T19:52:37.642Z,99.90
2022-11-14T19:55:05.578Z,99.80
2022-11-14T19:57:33.230Z,99.80
2022-11-14T20:00:00.849Z,99.90
2022-11-14T20:02:29.898Z,99.80
2022-11-14T20:04:57.642Z,99.90
2022-11-14T20:07:25.493Z,99.90
2022-11-14T20:09:53.207Z,99.90
2022-11-14T20:12:20.816Z,99.90
2022-11-14T20:14:48.478Z,99.90
2022-11-14T20:17:16.094Z,99.90
2022-11-14T20:19:45.010Z,99.90
2022-11-14T20:22:12.595Z,99.90
2022-11-14T20:24:40.200Z,99.90
2022-11-14T20:27:07.841Z,99.90
2022-11-14T20:29:35.469Z,99.90
2022-11-14T20:32:03.770Z,99.90
2022-11-14T20:34:32.264Z,99.90
2022-11-14T20:37:16.435Z,99.90
2022-11-14T20:39:43.998Z,99.90
2022-11-14T20:42:11.579Z,99.90
2022-11-14T20:44:39.303Z,99.90
2022-11-14T20:47:10.814Z,99.90
2022-11-14T20:49:38.877Z,99.90
2022-11-14T20:52:08.597Z,99.90
2022-11-14T20:54:36.634Z,99.90
2022-11-14T20:57:04.224Z,99.90
2022-11-14T20:59:31.923Z,99.90
2022-11-14T21:01:59.651Z,99.90
2022-11-14T21:04:27.250Z,99.90
2022-11-14T21:06:54.891Z,99.90
2022-11-14T21:09:23.875Z,99.90
2022-11-14T21:11:51.487Z,99.90
2022-11-14T21:14:19.116Z,99.90
2022-11-14T21:16:46.713Z,99.90
2022-11-14T21:19:14.260Z,99.90
2022-11-14T21:21:41.942Z,99.90
2022-11-14T21:24:09.612Z,99.90
2022-11-14T21:26:39.716Z,99.90
2022-11-14T21:29:08.997Z,99.90
2022-11-14T21:31:38.294Z,99.90
2022-11-14T21:34:06.729Z,99.90
2022-11-14T21:36:49.937Z,99.90
2022-11-14T21:39:17.948Z,99.90
2022-11-14T21:41:48.442Z,99.90
2022-11-14T21:44:17.601Z,99.90
2022-11-14T21:46:46.974Z,99.90
2022-11-14T21:49:14.813Z,99.90
2022-11-14T21:51:42.400Z,99.90
2022-11-14T21:54:10.255Z,99.90
2022-11-14T21:56:37.857Z,99.90
2022-11-14T21:59:15.139Z,99.90
2022-11-14T22:02:01.895Z,99.90
2022-11-14T22:04:29.657Z,99.90
2022-11-14T22:06:57.259Z,99.90
2022-11-14T22:09:27.019Z,99.90
2022-11-14T22:11:54.591Z,99.90
2022-11-14T22:14:23.505Z,99.90
2022-11-14T22:16:51.167Z,99.90
2022-11-14T22:19:18.927Z,99.90
2022-11-14T22:21:46.699Z,99.90
2022-11-14T22:24:14.373Z,99.90
2022-11-14T22:26:42.157Z,99.90
2022-11-14T22:29:09.927Z,99.90
2022-11-14T22:31:39.003Z,99.90
2022-11-14T22:34:07.033Z,99.90
2022-11-14T22:36:34.597Z,99.90
2022-11-14T22:39:02.324Z,99.90
2022-11-14T22:41:32.989Z,99.90
2022-11-14T22:44:01.264Z,99.90
2022-11-14T22:46:29.260Z,99.90
2022-11-14T22:48:58.234Z,99.90
2022-11-14T22:51:26.436Z,99.90
2022-11-14T22:53:54.864Z,99.90
2022-11-14T22:56:23.484Z,99.90
2022-11-14T22:58:51.285Z,99.90
2022-11-14T23:01:19.619Z,99.90
2022-11-14T23:03:48.342Z,99.90
2022-11-14T23:06:18.685Z,99.90
2022-11-14T23:08:46.367Z,99.90
2022-11-14T23:11:15.100Z,99.90
2022-11-14T23:13:43.411Z,99.90
2022-11-14T23:16:11.380Z,99.90
2022-11-14T23:18:38.959Z,99.90
2022-11-14T23:21:06.694Z,99.90
2022-11-14T23:23:35.578Z,99.90
2022-11-14T23:26:03.575Z,99.90
2022-11-14T23:28:31.447Z,99.90
2022-11-14T23:30:59.633Z,99.90
2022-11-14T23:33:27.581Z,99.90
2022-11-14T23:35:55.124Z,99.90
2022-11-14T23:38:23.290Z,99.90
2022-11-14T23:40:54.971Z,99.90
2022-11-14T23:43:22.740Z,99.90
2022-11-14T23:45:50.437Z,99.90
2022-11-14T23:48:18.480Z,99.90
2022-11-14T23:50:46.057Z,99.90
2022-11-14T23:53:13.615Z,99.90
2022-11-14T23:55:42.010Z,99.90
2022-11-14T23:58:10.941Z,99.90
